createdAt,value
2018-06-09T00:00:23.335Z,1003.85
2018-06-09T00:01:23.320Z,1003.85
2018-06-09T00:02:23.307Z,1003.83
2018-06-09T00:03:23.309Z,1003.84
2018-06-09T00:04:23.276Z,1003.83
2018-06-09T00:05:23.263Z,1003.80
2018-06-09T00:06:23.249Z,1003.84
2018-06-09T00:07:23.233Z,1003.84
2018-06-09T00:08:23.221Z,1003.91
2018-06-09T00:09:23.215Z,1003.90
2018-06-09T00:10:23.189Z,1003.84
2018-06-09T00:11:23.176Z,1003.85
2018-06-09T00:12:23.168Z,1003.86
2018-06-09T00:13:23.148Z,1003.83
2018-06-09T00:14:23.142Z,1003.77
2018-06-09T00:15:23.116Z,1003.77
2018-06-09T00:16:23.104Z,1003.79
2018-06-09T00:17:23.089Z,1003.80
2018-06-09T00:18:23.073Z,1003.80
2018-06-09T00:19:23.324Z,1003.82
2018-06-09T00:20:23.043Z,1003.84
2018-06-09T00:21:23.032Z,1003.86
2018-06-09T00:22:23.016Z,1003.85
2018-06-09T00:23:23.001Z,1003.88
2018-06-09T00:24:22.986Z,1003.87
2018-06-09T00:25:22.989Z,1003.87
2018-06-09T00:26:22.957Z,1003.83
2018-06-09T00:27:22.944Z,1003.87
2018-06-09T00:28:22.929Z,1003.85
2018-06-09T00:29:22.917Z,1003.87
2018-06-09T00:30:22.914Z,1003.87
2018-06-09T00:31:22.888Z,1003.87
2018-06-09T00:32:22.870Z,1003.94
2018-06-09T00:33:22.857Z,1003.91
2018-06-09T00:34:22.841Z,1003.88
2018-06-09T00:35:22.832Z,1003.89
2018-06-09T00:36:22.825Z,1003.90
2018-06-09T00:37:22.798Z,1003.90
2018-06-09T00:38:22.781Z,1003.84
2018-06-09T00:39:22.768Z,1003.83
2018-06-09T00:40:22.756Z,1003.87
2018-06-09T00:41:22.750Z,1003.83
2018-06-09T00:42:22.724Z,1003.87
2018-06-09T00:43:22.712Z,1003.88
2018-06-09T00:44:22.700Z,1003.85
2018-06-09T00:45:22.682Z,1003.85
2018-06-09T00:46:22.946Z,1003.81
2018-06-09T00:47:22.659Z,1003.82
2018-06-09T00:48:22.637Z,1003.82
2018-06-09T00:49:22.623Z,1003.84
2018-06-09T00:50:22.612Z,1003.81
2018-06-09T00:51:22.595Z,1003.78
2018-06-09T00:52:22.591Z,1003.79
2018-06-09T00:53:22.572Z,1003.73
2018-06-09T00:54:22.549Z,1003.72
2018-06-09T00:55:22.535Z,1003.73
2018-06-09T00:56:22.520Z,1003.75
2018-06-09T00:57:22.781Z,1003.74
2018-06-09T00:58:22.499Z,1003.76
2018-06-09T00:59:22.476Z,1003.73
2018-06-09T01:00:22.467Z,1003.77
2018-06-09T01:01:22.449Z,1003.79
2018-06-09T01:02:22.433Z,1003.80
2018-06-09T01:03:22.427Z,1003.81
2018-06-09T01:04:22.403Z,1003.81
2018-06-09T01:05:22.387Z,1003.80
2018-06-09T01:06:22.373Z,1003.77
2018-06-09T01:07:22.359Z,1003.79
2018-06-09T01:08:22.361Z,1003.78
2018-06-09T01:09:22.330Z,1003.80
2018-06-09T01:10:22.319Z,1003.77
2018-06-09T01:11:22.300Z,1003.73
2018-06-09T01:12:22.287Z,1003.73
2018-06-09T01:13:22.273Z,1003.76
2018-06-09T01:14:22.273Z,1003.77
2018-06-09T01:15:22.242Z,1003.75
2018-06-09T01:16:22.227Z,1003.74
2018-06-09T01:17:22.214Z,1003.76
2018-06-09T01:18:22.209Z,1003.79
2018-06-09T01:19:22.183Z,1003.80
2018-06-09T01:20:22.179Z,1003.82
2018-06-09T01:21:22.154Z,1003.79
2018-06-09T01:22:22.138Z,1003.80
2018-06-09T01:23:22.127Z,1003.82
2018-06-09T01:24:22.111Z,1003.79
2018-06-09T01:25:22.107Z,1003.81
2018-06-09T01:26:22.081Z,1003.78
2018-06-09T01:27:22.064Z,1003.80
2018-06-09T01:28:22.054Z,1003.81
2018-06-09T01:29:22.036Z,1003.82
2018-06-09T01:30:22.031Z,1003.81
2018-06-09T01:31:22.018Z,1003.80
2018-06-09T01:32:21.991Z,1003.83
2018-06-09T01:33:21.973Z,1003.81
2018-06-09T01:34:21.959Z,1003.83
2018-06-09T01:35:21.983Z,1003.80
2018-06-09T01:36:21.931Z,1003.83
2018-06-09T01:37:21.918Z,1003.77
2018-06-09T01:38:21.901Z,1003.79
2018-06-09T01:39:21.888Z,1003.83
2018-06-09T01:40:21.874Z,1003.81
2018-06-09T01:41:21.875Z,1003.83
2018-06-09T01:42:21.847Z,1003.83
2018-06-09T01:43:21.832Z,1003.84
2018-06-09T01:44:21.815Z,1003.85
2018-06-09T01:45:21.797Z,1003.86
2018-06-09T01:46:21.782Z,1003.84
2018-06-09T01:47:21.776Z,1003.85
2018-06-09T01:48:21.751Z,1003.81
2018-06-09T01:49:21.738Z,1003.85
2018-06-09T01:50:21.723Z,1003.81
2018-06-09T01:51:21.715Z,1003.77
2018-06-09T01:52:21.703Z,1003.75
2018-06-09T01:53:21.678Z,1003.72
2018-06-09T01:54:21.664Z,1003.73
2018-06-09T01:55:21.649Z,1003.72
2018-06-09T01:56:21.635Z,1003.67
2018-06-09T01:57:21.634Z,1003.74
2018-06-09T01:58:21.603Z,1003.75
2018-06-09T01:59:21.591Z,1003.77
2018-06-09T02:00:21.575Z,1003.77
2018-06-09T02:01:21.562Z,1003.78
2018-06-09T02:02:21.543Z,1003.77
2018-06-09T02:03:21.544Z,1003.78
2018-06-09T02:04:21.514Z,1003.79
2018-06-09T02:05:21.499Z,1003.80
2018-06-09T02:06:21.485Z,1003.83
2018-06-09T02:07:21.502Z,1003.84
2018-06-09T02:08:21.470Z,1003.82
2018-06-09T02:09:21.442Z,1003.84
2018-06-09T02:10:21.424Z,1003.84
2018-06-09T02:11:21.408Z,1003.84
2018-06-09T02:12:21.395Z,1003.84
2018-06-09T02:13:21.383Z,1003.82
2018-06-09T02:14:21.375Z,1003.82
2018-06-09T02:15:21.351Z,1003.80
2018-06-09T02:16:21.336Z,1003.79
2018-06-09T02:17:21.320Z,1003.75
2018-06-09T02:18:21.306Z,1003.73
2018-06-09T02:19:21.309Z,1003.76
2018-06-09T02:20:21.276Z,1003.74
2018-06-09T02:21:21.262Z,1003.75
2018-06-09T02:22:21.246Z,1003.81
2018-06-09T02:23:21.230Z,1003.76
2018-06-09T02:24:21.215Z,1003.76
2018-06-09T02:25:21.212Z,1003.74
2018-06-09T02:26:21.190Z,1003.72
2018-06-09T02:27:21.168Z,1003.71
2018-06-09T02:28:21.158Z,1003.70
2018-06-09T02:29:21.141Z,1003.71
2018-06-09T02:30:21.137Z,1003.70
2018-06-09T02:31:21.111Z,1003.68
2018-06-09T02:32:21.095Z,1003.70
2018-06-09T02:33:21.081Z,1003.66
2018-06-09T02:34:21.069Z,1003.68
2018-06-09T02:35:21.069Z,1003.72
2018-06-09T02:36:21.036Z,1003.65
2018-06-09T02:37:21.023Z,1003.69
2018-06-09T02:38:21.006Z,1003.66
2018-06-09T02:39:20.993Z,1003.68
2018-06-09T02:40:20.976Z,1003.66
2018-06-09T02:41:20.977Z,1003.64
2018-06-09T02:42:20.946Z,1003.70
2018-06-09T02:43:20.935Z,1003.70
2018-06-09T02:44:20.916Z,1003.70
2018-06-09T02:45:20.901Z,1003.70
2018-06-09T02:46:20.884Z,1003.69
2018-06-09T02:47:20.881Z,1003.66
2018-06-09T02:48:20.861Z,1003.69
2018-06-09T02:49:20.840Z,1003.68
2018-06-09T02:50:20.829Z,1003.66
2018-06-09T02:51:20.809Z,1003.68
2018-06-09T02:52:20.816Z,1003.69
2018-06-09T02:53:20.781Z,1003.74
2018-06-09T02:54:20.764Z,1003.71
2018-06-09T02:55:20.750Z,1003.72
2018-06-09T02:56:20.735Z,1003.71
2018-06-09T02:57:20.731Z,1003.72
2018-06-09T02:58:20.711Z,1003.74
2018-06-09T02:59:20.692Z,1003.76
2018-06-09T03:00:20.676Z,1003.79
2018-06-09T03:01:20.661Z,1003.80
2018-06-09T03:02:20.919Z,1003.79
2018-06-09T03:03:20.630Z,1003.81
2018-06-09T03:04:20.615Z,1003.80
2018-06-09T03:05:20.601Z,1003.77
2018-06-09T03:06:20.586Z,1003.77
2018-06-09T03:07:20.572Z,1003.75
2018-06-09T03:08:20.875Z,1003.74
2018-06-09T03:09:20.544Z,1003.73
2018-06-09T03:10:20.525Z,1003.73
2018-06-09T03:11:20.512Z,1003.68
2018-06-09T03:12:20.502Z,1003.72
2018-06-09T03:13:20.482Z,1003.68
2018-06-09T03:14:20.477Z,1003.70
2018-06-09T03:15:20.454Z,1003.67
2018-06-09T03:16:20.437Z,1003.67
2018-06-09T03:17:20.422Z,1003.67
2018-06-09T03:18:20.405Z,1003.66
2018-06-09T03:19:20.401Z,1003.60
2018-06-09T03:20:20.376Z,1003.60
2018-06-09T03:21:20.363Z,1003.62
2018-06-09T03:22:20.346Z,1003.62
2018-06-09T03:23:20.331Z,1003.61
2018-06-09T03:24:20.332Z,1003.61
2018-06-09T03:25:20.303Z,1003.60
2018-06-09T03:26:20.286Z,1003.60
2018-06-09T03:27:20.273Z,1003.60
2018-06-09T03:28:20.259Z,1003.63
2018-06-09T03:29:20.243Z,1003.60
2018-06-09T03:30:20.243Z,1003.62
2018-06-09T03:31:20.214Z,1003.61
2018-06-09T03:32:20.203Z,1003.61
2018-06-09T03:33:20.184Z,1003.61
2018-06-09T03:34:20.171Z,1003.64
2018-06-09T03:35:20.153Z,1003.64
2018-06-09T03:36:20.152Z,1003.66
2018-06-09T03:37:20.124Z,1003.66
2018-06-09T03:38:20.110Z,1003.69
2018-06-09T03:39:20.095Z,1003.71
2018-06-09T03:40:20.085Z,1003.64
2018-06-09T03:41:20.346Z,1003.71
2018-06-09T03:42:20.054Z,1003.69
2018-06-09T03:43:20.099Z,1003.70
2018-06-09T03:44:20.023Z,1003.74
2018-06-09T03:45:20.009Z,1003.71
2018-06-09T03:46:19.991Z,1003.70
2018-06-09T03:47:19.987Z,1003.73
2018-06-09T03:48:19.962Z,1003.73
2018-06-09T03:49:19.947Z,1003.73
2018-06-09T03:50:19.932Z,1003.76
2018-06-09T03:51:19.920Z,1003.76
2018-06-09T03:52:19.913Z,1003.77
2018-06-09T03:53:19.890Z,1003.77
2018-06-09T03:54:19.874Z,1003.80
2018-06-09T03:55:19.857Z,1003.80
2018-06-09T03:56:19.846Z,1003.82
2018-06-09T03:57:19.845Z,1003.84
2018-06-09T03:58:19.812Z,1003.86
2018-06-09T03:59:19.800Z,1003.89
2018-06-09T04:00:19.785Z,1003.86
2018-06-09T04:01:19.773Z,1003.90
2018-06-09T04:02:19.755Z,1003.90
2018-06-09T04:03:19.757Z,1003.92
2018-06-09T04:04:19.728Z,1003.88
2018-06-09T04:05:19.713Z,1003.95
2018-06-09T04:06:19.696Z,1003.94
2018-06-09T04:07:19.684Z,1003.90
2018-06-09T04:08:19.668Z,1003.93
2018-06-09T04:09:19.665Z,1003.95
2018-06-09T04:10:19.640Z,1003.93
2018-06-09T04:11:19.627Z,1003.91
2018-06-09T04:12:19.610Z,1003.90
2018-06-09T04:13:19.594Z,1003.89
2018-06-09T04:14:19.593Z,1003.89
2018-06-09T04:15:19.566Z,1003.85
2018-06-09T04:16:19.550Z,1003.87
2018-06-09T04:17:19.536Z,1003.86
2018-06-09T04:18:19.535Z,1003.88
2018-06-09T04:19:19.517Z,1003.91
2018-06-09T04:20:19.498Z,1003.91
2018-06-09T04:21:19.481Z,1003.91
2018-06-09T04:22:19.462Z,1003.95
2018-06-09T04:23:19.449Z,1003.96
2018-06-09T04:24:19.452Z,1003.95
2018-06-09T04:25:19.421Z,1003.95
2018-06-09T04:26:19.409Z,1003.96
2018-06-09T04:27:19.395Z,1003.96
2018-06-09T04:28:19.415Z,1003.93
2018-06-09T04:29:19.362Z,1003.90
2018-06-09T04:30:19.370Z,1003.88
2018-06-09T04:31:19.336Z,1003.84
2018-06-09T04:32:19.322Z,1003.80
2018-06-09T04:33:19.305Z,1003.79
2018-06-09T04:34:19.290Z,1003.83
2018-06-09T04:35:19.275Z,1003.82
2018-06-09T04:36:19.270Z,1003.80
2018-06-09T04:37:19.248Z,1003.89
2018-06-09T04:38:19.232Z,1003.87
2018-06-09T04:39:19.217Z,1003.90
2018-06-09T04:40:19.225Z,1003.94
2018-06-09T04:41:19.197Z,1003.94
2018-06-09T04:42:19.174Z,1003.94
2018-06-09T04:43:19.162Z,1003.96
2018-06-09T04:44:19.145Z,1003.95
2018-06-09T04:45:19.131Z,1003.97
2018-06-09T04:46:19.132Z,1003.95
2018-06-09T04:47:19.110Z,1003.96
2018-06-09T04:48:19.088Z,1003.95
2018-06-09T04:49:19.073Z,1003.94
2018-06-09T04:50:19.057Z,1003.96
2018-06-09T04:51:19.045Z,1003.91
2018-06-09T04:52:19.045Z,1003.95
2018-06-09T04:53:19.017Z,1003.97
2018-06-09T04:54:18.999Z,1003.93
2018-06-09T04:55:18.987Z,1003.89
2018-06-09T04:56:18.971Z,1003.92
2018-06-09T04:57:18.957Z,1003.92
2018-06-09T04:58:18.951Z,1003.92
2018-06-09T04:59:18.968Z,1003.91
2018-06-09T05:00:18.914Z,1003.93
2018-06-09T05:01:18.899Z,1003.94
2018-06-09T05:02:18.884Z,1003.95
2018-06-09T05:03:18.882Z,1003.96
2018-06-09T05:04:18.857Z,1003.95
2018-06-09T05:05:18.839Z,1003.96
2018-06-09T05:06:18.826Z,1003.97
2018-06-09T05:07:18.876Z,1003.96
2018-06-09T05:08:18.814Z,1004.00
2018-06-09T05:09:18.782Z,1003.99
2018-06-09T05:10:18.766Z,1003.98
2018-06-09T05:11:18.757Z,1003.98
2018-06-09T05:12:18.738Z,1003.96
2018-06-09T05:13:18.761Z,1003.94
2018-06-09T05:14:18.724Z,1003.93
2018-06-09T05:15:18.698Z,1003.90
2018-06-09T05:16:18.682Z,1003.88
2018-06-09T05:17:18.669Z,1003.86
2018-06-09T05:18:18.702Z,1003.92
2018-06-09T05:19:18.637Z,1003.91
2018-06-09T05:20:18.637Z,1003.96
2018-06-09T05:21:18.609Z,1003.94
2018-06-09T10:31:38.016Z,1004.46
2018-06-09T10:32:37.927Z,1004.45
2018-06-09T10:33:37.922Z,1004.47
2018-06-09T10:34:37.922Z,1004.42
2018-06-09T10:35:37.892Z,1004.44
2018-06-09T10:36:37.880Z,1004.43
2018-06-09T10:37:37.871Z,1004.47
2018-06-09T10:38:37.875Z,1004.45
2018-06-09T10:39:37.843Z,1004.42
2018-06-09T10:40:37.844Z,1004.47
2018-06-09T10:41:37.820Z,1004.46
2018-06-09T10:42:37.809Z,1004.45
2018-06-09T10:43:37.803Z,1004.42
2018-06-09T10:44:37.802Z,1004.45
2018-06-09T10:45:37.803Z,1004.43
2018-06-09T10:46:37.771Z,1004.44
2018-06-09T10:47:37.755Z,1004.45
2018-06-09T10:48:37.752Z,1004.48
2018-06-09T10:49:37.735Z,1004.52
2018-06-09T10:50:37.721Z,1004.53
2018-06-09T10:51:37.727Z,1004.56
2018-06-09T10:52:37.707Z,1004.52
2018-06-09T10:53:37.698Z,1004.55
2018-06-09T10:54:37.683Z,1004.56
2018-06-09T10:55:37.673Z,1004.57
2018-06-09T10:56:37.695Z,1004.51
2018-06-09T10:57:37.662Z,1004.50
2018-06-09T10:58:37.644Z,1004.45
2018-06-09T10:59:37.639Z,1004.47
2018-06-09T11:00:37.628Z,1004.52
2018-06-09T11:01:37.616Z,1004.49
2018-06-09T11:02:37.617Z,1004.51
2018-06-09T11:03:37.598Z,1004.45
2018-06-09T11:04:37.585Z,1004.40
2018-06-09T11:05:37.575Z,1004.38
2018-06-09T11:06:37.567Z,1004.30
2018-06-09T11:07:37.567Z,1004.42
2018-06-09T11:08:37.547Z,1004.38
2018-06-09T11:09:37.537Z,1004.38
2018-06-09T11:10:37.531Z,1004.34
2018-06-09T11:11:37.519Z,1004.32
2018-06-09T11:12:37.525Z,1004.27
2018-06-09T11:13:37.498Z,1004.33
2018-06-09T11:14:37.494Z,1004.31
2018-06-09T11:15:37.478Z,1004.32
2018-06-09T11:16:37.477Z,1004.36
2018-06-09T11:17:37.476Z,1004.33
2018-06-09T11:18:37.448Z,1004.27
2018-06-09T11:19:37.442Z,1004.30
2018-06-09T11:20:37.433Z,1004.27
2018-06-09T11:21:37.423Z,1004.15
2018-06-09T11:22:37.414Z,1004.12
2018-06-09T11:23:37.418Z,1004.11
2018-06-09T11:24:37.405Z,1004.14
2018-06-09T11:25:37.385Z,1004.26
2018-06-09T11:26:37.376Z,1004.21
2018-06-09T11:27:37.386Z,1004.22
2018-06-09T11:28:37.355Z,1004.19
2018-06-09T11:29:37.363Z,1004.21
2018-06-09T11:30:37.337Z,1004.14
2018-06-09T11:31:37.328Z,1004.12
2018-06-09T11:32:37.320Z,1004.14
2018-06-09T11:33:37.327Z,1004.14
2018-06-09T11:34:37.300Z,1004.04
2018-06-09T11:35:37.294Z,1004.10
2018-06-09T11:36:37.281Z,1004.12
2018-06-09T11:37:37.265Z,1004.14
2018-06-09T11:38:37.260Z,1004.15
2018-06-09T11:39:37.264Z,1004.16
2018-06-09T11:40:37.247Z,1004.08
2018-06-09T11:41:37.236Z,1004.11
2018-06-09T11:42:37.225Z,1004.12
2018-06-09T11:43:37.219Z,1004.16
2018-06-09T11:44:37.216Z,1004.09
2018-06-09T11:45:37.195Z,1004.08
2018-06-09T11:46:37.185Z,1004.09
2018-06-09T11:47:37.181Z,1004.09
2018-06-09T11:48:37.174Z,1004.00
2018-06-09T11:49:37.166Z,1004.02
2018-06-09T11:50:37.179Z,1004.04
2018-06-09T11:51:37.144Z,1004.05
2018-06-09T11:52:37.128Z,1004.01
2018-06-09T11:53:37.123Z,1004.02
2018-06-09T11:54:37.125Z,1004.00
2018-06-09T11:55:37.110Z,1003.99
2018-06-09T11:56:37.097Z,1003.92
2018-06-09T11:57:37.086Z,1003.91
2018-06-09T11:58:37.146Z,1003.91
2018-06-09T11:59:37.078Z,1003.92
2018-06-09T12:00:37.057Z,1003.92
2018-06-09T12:01:37.048Z,1003.93
2018-06-09T12:02:37.035Z,1003.95
2018-06-09T12:03:37.030Z,1003.86
2018-06-09T12:04:37.038Z,1003.89
2018-06-09T12:05:37.019Z,1003.90
2018-06-09T12:06:37.003Z,1003.90
2018-06-09T12:07:36.988Z,1003.87
2018-06-09T12:08:36.985Z,1003.87
2018-06-09T12:09:36.997Z,1003.87
2018-06-09T12:10:36.963Z,1003.91
2018-06-09T12:11:36.955Z,1003.87
2018-06-09T12:12:36.946Z,1003.89
2018-06-09T12:13:36.937Z,1003.85
2018-06-09T12:14:36.932Z,1003.83
2018-06-09T12:15:36.936Z,1003.85
2018-06-09T12:16:36.911Z,1003.84
2018-06-09T12:17:36.901Z,1003.80
2018-06-09T12:18:36.891Z,1003.80
2018-06-09T12:19:36.884Z,1003.81
2018-06-09T12:20:36.875Z,1003.82
2018-06-09T12:21:36.876Z,1003.82
2018-06-09T12:22:36.870Z,1003.83
2018-06-09T12:23:36.848Z,1003.85
2018-06-09T12:24:36.846Z,1003.86
2018-06-09T12:25:36.830Z,1003.88
2018-06-09T12:26:36.838Z,1003.85
2018-06-09T12:27:36.819Z,1003.80
2018-06-09T12:28:36.807Z,1003.86
2018-06-09T12:29:36.796Z,1003.80
2018-06-09T12:30:36.786Z,1003.81
2018-06-09T12:31:36.797Z,1003.75
2018-06-09T12:32:36.793Z,1003.75
2018-06-09T12:33:36.757Z,1003.64
2018-06-09T12:34:36.751Z,1003.61
2018-06-09T12:35:36.745Z,1003.62
2018-06-09T12:36:36.751Z,1003.71
2018-06-09T12:37:36.728Z,1003.72
2018-06-09T12:38:36.717Z,1003.66
2018-06-09T12:39:36.710Z,1003.69
2018-06-09T12:40:36.704Z,1003.66
2018-06-09T12:41:36.713Z,1003.65
2018-06-09T12:42:36.684Z,1003.63
2018-06-09T12:43:36.685Z,1003.68
2018-06-09T12:44:36.681Z,1003.70
2018-06-09T12:45:36.654Z,1003.70
2018-06-09T12:46:36.661Z,1003.64
2018-06-09T12:47:36.647Z,1003.61
2018-06-09T12:48:36.678Z,1003.59
2018-06-09T12:49:36.625Z,1003.55
2018-06-09T12:50:36.617Z,1003.53
2018-06-09T12:51:36.676Z,1003.56
2018-06-09T12:52:36.599Z,1003.59
2018-06-09T12:53:36.588Z,1003.57
2018-06-09T12:54:36.581Z,1003.51
2018-06-09T12:55:36.574Z,1003.54
2018-06-09T12:56:36.583Z,1003.50
2018-06-09T12:57:36.559Z,1003.55
2018-06-09T12:58:36.547Z,1003.53
2018-06-09T12:59:36.540Z,1003.53
2018-06-09T13:00:36.540Z,1003.51
2018-06-09T13:01:36.521Z,1003.49
2018-06-09T13:02:36.525Z,1003.55
2018-06-09T13:03:36.504Z,1003.52
2018-06-09T13:04:36.499Z,1003.50
2018-06-09T13:05:36.489Z,1003.52
2018-06-09T13:06:36.480Z,1003.53
2018-06-09T13:07:36.469Z,1003.48
2018-06-09T13:08:36.479Z,1003.46
2018-06-09T13:09:36.455Z,1003.46
2018-06-09T13:10:36.447Z,1003.45
2018-06-09T13:11:36.439Z,1003.47
2018-06-09T13:12:36.430Z,1003.48
2018-06-09T13:13:36.430Z,1003.44
2018-06-09T13:14:36.415Z,1003.42
2018-06-09T13:15:36.407Z,1003.35
2018-06-09T13:16:36.404Z,1003.29
2018-06-09T13:17:36.391Z,1003.25
2018-06-09T13:18:36.398Z,1003.24
2018-06-09T13:19:36.433Z,1003.25
2018-06-09T13:20:36.371Z,1003.23
2018-06-09T13:21:36.361Z,1003.32
2018-06-09T13:22:36.361Z,1003.31
2018-06-09T13:23:36.353Z,1003.29
2018-06-09T13:24:36.354Z,1003.31
2018-06-09T13:25:36.331Z,1003.32
2018-06-09T13:26:36.322Z,1003.36
2018-06-09T13:27:36.317Z,1003.27
2018-06-09T13:28:36.314Z,1003.30
2018-06-09T13:29:36.335Z,1003.26
2018-06-09T13:30:36.312Z,1003.24
2018-06-09T13:31:36.286Z,1003.26
2018-06-09T13:32:36.279Z,1003.25
2018-06-09T13:33:36.271Z,1003.18
2018-06-09T13:34:36.265Z,1003.18
2018-06-09T13:35:36.277Z,1003.15
2018-06-09T13:36:36.253Z,1003.14
2018-06-09T13:37:36.241Z,1003.17
2018-06-09T13:38:36.233Z,1003.15
2018-06-09T13:39:36.234Z,1003.09
2018-06-09T13:40:36.228Z,1003.10
2018-06-09T13:41:36.229Z,1003.06
2018-06-09T13:42:36.213Z,1003.10
2018-06-09T13:43:36.201Z,1003.08
2018-06-09T13:44:36.194Z,1003.11
2018-06-09T13:45:36.223Z,1003.05
2018-06-09T13:46:36.178Z,1003.08
2018-06-09T13:47:36.179Z,1003.09
2018-06-09T13:48:36.167Z,1003.11
2018-06-09T13:49:36.158Z,1003.06
2018-06-09T13:50:36.158Z,1003.08
2018-06-09T13:51:36.157Z,1002.99
2018-06-09T13:52:36.147Z,1003.05
2018-06-09T13:53:36.133Z,1003.04
2018-06-09T13:54:36.175Z,1003.13
2018-06-09T13:55:36.121Z,1003.09
2018-06-09T13:56:36.152Z,1003.01
2018-06-09T13:57:36.110Z,1003.00
2018-06-09T13:58:36.105Z,1003.00
2018-06-09T13:59:36.097Z,1003.02
2018-06-09T14:00:36.090Z,1003.05
2018-06-09T14:01:36.131Z,1003.10
2018-06-09T14:02:36.079Z,1003.12
2018-06-09T14:03:36.072Z,1003.14
2018-06-09T14:04:36.072Z,1003.16
2018-06-09T14:05:36.065Z,1003.12
2018-06-09T14:06:36.053Z,1003.09
2018-06-09T14:07:36.072Z,1003.14
2018-06-09T14:08:36.046Z,1003.14
2018-06-09T14:09:36.039Z,1003.15
2018-06-09T14:10:36.039Z,1003.17
2018-06-09T14:11:36.028Z,1003.18
2018-06-09T14:12:36.024Z,1003.13
2018-06-09T14:13:36.032Z,1003.12
2018-06-09T14:14:36.014Z,1003.16
2018-06-09T14:15:36.008Z,1003.12
2018-06-09T14:16:36.010Z,1003.14
2018-06-09T14:17:35.999Z,1003.16
2018-06-09T14:18:36.004Z,1003.14
2018-06-09T14:19:35.993Z,1003.14
2018-06-09T14:20:35.985Z,1003.08
2018-06-09T14:21:35.986Z,1003.11
2018-06-09T14:22:35.980Z,1003.18
2018-06-09T14:23:35.989Z,1003.19
2018-06-09T14:24:35.967Z,1003.19
2018-06-09T14:25:35.961Z,1003.19
2018-06-09T14:26:35.954Z,1003.21
2018-06-09T14:27:35.951Z,1003.19
2018-06-09T14:28:35.962Z,1003.12
2018-06-09T14:29:35.943Z,1003.20
2018-06-09T14:30:35.939Z,1003.24
2018-06-09T14:31:35.933Z,1003.26
2018-06-09T14:32:35.939Z,1003.25
2018-06-09T14:33:35.938Z,1003.27
2018-06-09T14:34:35.933Z,1003.29
2018-06-09T14:35:35.921Z,1003.27
2018-06-09T14:36:35.917Z,1003.24
2018-06-09T14:37:35.912Z,1003.14
2018-06-09T14:38:35.916Z,1003.19
2018-06-09T14:39:35.903Z,1003.20
2018-06-09T14:40:35.900Z,1003.23
2018-06-09T14:41:35.894Z,1003.24
2018-06-09T14:42:35.889Z,1003.20
2018-06-09T14:43:35.920Z,1003.15
2018-06-09T14:44:35.885Z,1003.15
2018-06-09T14:45:35.880Z,1003.08
2018-06-09T14:46:35.874Z,1003.07
2018-06-09T14:47:35.876Z,1003.13
2018-06-09T14:48:35.868Z,1003.35
2018-06-09T14:49:35.879Z,1003.51
2018-06-09T14:50:35.866Z,1003.32
2018-06-09T14:51:35.857Z,1003.20
2018-06-09T14:52:35.852Z,1003.10
2018-06-09T14:53:35.851Z,1003.12
2018-06-09T14:54:35.846Z,1003.07
2018-06-09T14:55:35.867Z,1003.13
2018-06-09T14:56:35.840Z,1003.11
2018-06-09T14:57:35.834Z,1003.06
2018-06-09T14:58:35.838Z,1003.05
2018-06-09T14:59:35.830Z,1003.10
2018-06-09T15:00:35.836Z,1003.11
2018-06-09T15:01:35.830Z,1003.04
2018-06-09T15:02:35.818Z,1003.03
2018-06-09T15:03:35.821Z,1003.01
2018-06-09T15:04:35.811Z,1002.95
2018-06-09T15:05:35.827Z,1002.93
2018-06-09T15:06:35.810Z,1002.90
2018-06-09T15:07:35.803Z,1002.93
2018-06-09T15:08:35.796Z,1002.98
2018-06-09T15:09:35.812Z,1002.90
2018-06-09T15:10:35.799Z,1002.90
2018-06-09T15:11:35.787Z,1002.85
2018-06-09T15:12:35.790Z,1002.83
2018-06-09T15:13:35.775Z,1002.92
2018-06-09T15:14:35.774Z,1002.88
2018-06-09T15:15:35.786Z,1002.89
2018-06-09T15:16:35.769Z,1002.91
2018-06-09T15:17:35.761Z,1002.93
2018-06-09T15:18:35.748Z,1002.95
2018-06-09T15:19:35.816Z,1002.94
2018-06-09T15:20:35.776Z,1002.98
2018-06-09T15:21:35.738Z,1002.96
2018-06-09T15:22:35.791Z,1002.99
2018-06-09T15:23:35.729Z,1003.01
2018-06-09T15:24:35.727Z,1002.99
2018-06-09T15:25:35.720Z,1002.98
2018-06-09T15:26:35.734Z,1002.97
2018-06-09T15:27:35.711Z,1002.90
2018-06-09T15:28:35.715Z,1002.95
2018-06-09T15:29:35.699Z,1002.89
2018-06-09T15:30:35.697Z,1002.90
2018-06-09T15:31:35.688Z,1002.91
2018-06-09T15:32:35.695Z,1002.89
2018-06-09T15:33:35.677Z,1002.91
2018-06-09T15:34:35.666Z,1002.91
2018-06-09T15:35:35.662Z,1002.96
2018-06-09T15:36:35.664Z,1002.97
2018-06-09T15:37:35.668Z,1003.05
2018-06-09T15:38:35.665Z,1003.09
2018-06-09T15:39:35.644Z,1003.08
2018-06-09T15:40:35.641Z,1003.06
2018-06-09T15:41:35.631Z,1003.10
2018-06-09T15:42:35.908Z,1003.08
2018-06-09T15:43:35.627Z,1003.09
2018-06-09T15:44:35.620Z,1003.04
2018-06-09T15:45:35.617Z,1003.05
2018-06-09T15:46:35.619Z,1003.03
2018-06-09T15:47:35.607Z,1003.01
2018-06-09T15:48:35.624Z,1002.95
2018-06-09T15:49:35.599Z,1002.92
2018-06-09T15:50:35.604Z,1002.91
2018-06-09T15:51:35.591Z,1002.90
2018-06-09T15:52:35.590Z,1002.80
2018-06-09T15:53:35.642Z,1002.83
2018-06-09T15:54:35.608Z,1002.82
2018-06-09T15:55:35.580Z,1002.79
2018-06-09T15:56:35.573Z,1002.77
2018-06-09T15:57:35.568Z,1002.72
2018-06-09T15:58:35.573Z,1002.69
2018-06-09T15:59:35.580Z,1002.74
2018-06-09T16:00:35.561Z,1002.71
2018-06-09T16:01:35.565Z,1002.70
2018-06-09T16:02:35.554Z,1002.69
2018-06-09T16:03:35.553Z,1002.72
2018-06-09T16:04:35.562Z,1002.68
2018-06-09T16:05:35.549Z,1002.68
2018-06-09T16:06:35.551Z,1002.68
2018-06-09T16:07:35.550Z,1002.71
2018-06-09T16:08:35.544Z,1002.69
2018-06-09T16:09:35.554Z,1002.69
2018-06-09T16:10:35.533Z,1002.65
2018-06-09T16:11:35.540Z,1002.70
2018-06-09T16:12:35.534Z,1002.68
2018-06-09T16:13:35.533Z,1002.64
2018-06-09T16:14:35.528Z,1002.67
2018-06-09T16:15:35.562Z,1002.69
2018-06-09T16:16:35.525Z,1002.72
2018-06-09T16:17:35.524Z,1002.72
2018-06-09T16:18:35.521Z,1002.78
2018-06-09T16:19:35.524Z,1002.81
2018-06-09T16:20:35.515Z,1002.84
2018-06-09T16:21:35.524Z,1002.80
2018-06-09T16:22:35.510Z,1002.82
2018-06-09T16:23:35.513Z,1002.76
2018-06-09T16:24:35.510Z,1002.75
2018-06-09T16:25:35.507Z,1002.65
2018-06-09T16:26:35.516Z,1002.79
2018-06-09T16:27:35.500Z,1002.74
2018-06-09T16:28:35.500Z,1002.73
2018-06-09T16:29:35.494Z,1002.72
2018-06-09T16:30:35.494Z,1002.64
2018-06-09T16:31:35.488Z,1002.67
2018-06-09T16:32:35.541Z,1002.64
2018-06-09T16:33:35.480Z,1002.71
2018-06-09T16:34:35.484Z,1002.78
2018-06-09T16:35:35.475Z,1002.65
2018-06-09T16:36:35.480Z,1002.65
2018-06-09T16:37:35.480Z,1002.63
2018-06-09T16:38:35.498Z,1002.59
2018-06-09T16:39:35.463Z,1002.55
2018-06-09T16:40:35.451Z,1002.57
2018-06-09T16:41:35.459Z,1002.55
2018-06-09T16:42:35.436Z,1002.55
2018-06-09T16:43:35.432Z,1002.53
2018-06-09T16:44:35.429Z,1002.57
2018-06-09T16:45:35.456Z,1002.54
2018-06-09T16:46:35.429Z,1002.52
2018-06-09T16:47:35.456Z,1002.50
2018-06-09T16:48:35.403Z,1002.52
2018-06-09T16:49:35.396Z,1002.51
2018-06-09T16:50:35.395Z,1002.50
2018-06-09T16:51:35.402Z,1002.54
2018-06-09T16:52:35.377Z,1002.55
2018-06-09T16:53:35.367Z,1002.58
2018-06-09T16:54:35.381Z,1002.54
2018-06-09T16:55:35.360Z,1002.56
2018-06-09T16:56:35.352Z,1002.56
2018-06-09T16:57:35.354Z,1002.61
2018-06-09T16:58:35.335Z,1002.57
2018-06-09T16:59:35.329Z,1002.60
2018-06-09T17:00:35.318Z,1002.57
2018-06-09T17:01:35.315Z,1002.62
2018-06-09T17:02:35.588Z,1002.57
2018-06-09T17:03:35.294Z,1002.57
2018-06-09T17:04:35.288Z,1002.59
2018-06-09T17:05:35.277Z,1002.65
2018-06-09T17:06:35.274Z,1002.61
2018-06-09T17:07:35.261Z,1002.64
2018-06-09T17:08:35.269Z,1002.66
2018-06-09T17:09:35.241Z,1002.64
2018-06-09T17:10:35.237Z,1002.66
2018-06-09T17:11:35.226Z,1002.64
2018-06-09T17:12:35.218Z,1002.63
2018-06-09T17:13:35.211Z,1002.60
2018-06-09T17:14:35.208Z,1002.63